Buffalo (BUF/KBUF)

Map

Information

Location
Buffalo, NY
Local Time
20:55 / 8:55 pm
GMT Time
01:55 / 1:55 am
Gates
No FAA reported delays
METAR KBUF 250054Z 20017KT 10SM FEW190 FEW210 08/M03 A2969 RMK AO2 SLP058 T00831033
TAF KBUF 242341Z 2500/2524 20015G24KT P6SM FEW200 WS020/22050KT FM250800 21016G24KT P6SM SCT130 WS020/23050KT FM251200 22014G22KT P6SM BKN035 FM251300 23014G22KT P6SM VCSH BKN025 FM251500 25013G20KT P6SM VCSH OVC015 FM251900 26011KT P6SM OVC025 FM252100 27010KT P6SM OVC035